Time;durP1;ratioP1;P1;durP2;ratioP2;P2;SDS_P1;SDS_P2;PMS_P1;PMS_P2;Temp;Humidity;BMP_temperature;BMP_pressure;BME280_temperature;BME280_humidity;BME280_pressure;Samples;Min_cycle;Max_cycle;Signal;HPM_P1;HPM_P2
2021/04/18 00:00:11;;;;;;;4.10;3.60;;;;;;;7.74;60.58;99328.81;5108825;27;39696;-74
2021/04/18 00:02:38;;;;;;;5.37;4.17;;;;;;;7.72;60.85;99322.75;5106819;28;42505;-73
2021/04/18 00:05:07;;;;;;;4.50;4.10;;;;;;;7.72;60.71;99328.03;5106735;28;43387;-73
2021/04/18 00:07:35;;;;;;;5.03;3.80;;;;;;;7.70;60.83;99325.44;5091003;28;42091;-73
2021/04/18 00:10:02;;;;;;;5.43;4.00;;;;;;;7.69;60.63;99318.47;5107058;28;39437;-73
2021/04/18 00:12:30;;;;;;;3.97;3.57;;;;;;;7.70;60.31;99314.06;5109420;27;41372;-73
2021/04/18 00:14:57;;;;;;;3.90;3.50;;;;;;;7.69;60.34;99323.75;5107053;28;43387;-73
2021/04/18 00:17:26;;;;;;;4.23;3.47;;;;;;;7.61;60.63;99303.91;5109490;27;41156;-73
2021/04/18 00:19:53;;;;;;;4.17;3.53;;;;;;;7.67;60.50;99314.19;5107044;28;39849;-74
2021/04/18 00:22:20;;;;;;;3.97;3.53;;;;;;;7.66;60.51;99315.13;5109529;27;41424;-73
2021/04/18 00:24:47;;;;;;;4.63;4.00;;;;;;;7.63;60.35;99315.25;5108420;27;42838;-73
2021/04/18 00:27:14;;;;;;;4.87;4.00;;;;;;;7.55;60.32;99300.59;5090786;28;41191;-73
2021/04/18 00:29:41;;;;;;;3.63;3.33;;;;;;;7.60;60.33;99299.56;5108476;27;40538;-73
2021/04/18 00:32:08;;;;;;;4.53;3.70;;;;;;;7.60;60.19;99304.84;5107754;28;41743;-74
2021/04/18 00:34:36;;;;;;;4.10;3.30;;;;;;;7.57;60.30;99304.03;5107494;28;42355;-73
2021/04/18 00:37:03;;;;;;;3.87;3.33;;;;;;;7.55;60.22;99294.47;5109334;27;42974;-74
2021/04/18 00:39:30;;;;;;;4.27;3.70;;;;;;;7.54;60.22;99296.25;5107483;28;38839;-75
2021/04/18 00:41:58;;;;;;;4.00;3.60;;;;;;;7.55;60.19;99295.34;5106635;28;41371;-74
2021/04/18 00:44:25;;;;;;;4.13;3.30;;;;;;;7.54;60.14;99298.06;5111348;27;43242;-74
2021/04/18 00:46:52;;;;;;;6.03;3.80;;;;;;;7.54;60.26;99301.53;5111272;27;42896;-74
2021/04/18 00:49:19;;;;;;;4.27;3.60;;;;;;;7.55;60.43;99302.38;5094648;28;38990;-74
2021/04/18 00:51:47;;;;;;;4.87;4.37;;;;;;;7.56;60.68;99304.09;5110988;28;42419;-74
2021/04/18 00:54:14;;;;;;;5.40;4.53;;;;;;;7.56;61.52;99297.06;5089781;28;42342;-74
2021/04/18 00:56:41;;;;;;;4.77;4.03;;;;;;;7.57;61.43;99296.13;5093436;28;42238;-74
2021/04/18 00:59:09;;;;;;;4.77;4.20;;;;;;;7.59;61.57;99296.06;5093820;28;39233;-74
2021/04/18 01:01:37;;;;;;;5.87;4.80;;;;;;;7.58;62.00;99289.94;5111962;27;42314;-74
2021/04/18 01:04:05;;;;;;;4.27;3.87;;;;;;;7.55;61.50;99290.06;5111873;27;42910;-74
2021/04/18 01:06:33;;;;;;;4.83;4.33;;;;;;;7.62;61.33;99289.81;5110355;28;43175;-74
2021/04/18 01:09:01;;;;;;;5.43;4.40;;;;;;;7.63;61.20;99291.53;5111170;27;40546;-74
2021/04/18 01:11:28;;;;;;;4.17;3.77;;;;;;;7.64;61.21;99293.25;5110635;28;41699;-74
2021/04/18 01:13:56;;;;;;;4.40;3.57;;;;;;;7.65;61.14;99294.97;5109951;28;43110;-74
2021/04/18 01:16:24;;;;;;;5.13;4.03;;;;;;;7.65;61.45;99289.69;5111880;27;42498;-74
2021/04/18 01:18:51;;;;;;;4.77;4.27;;;;;;;7.63;61.37;99281.00;5111411;27;39938;-73
2021/04/18 01:21:21;;;;;;;6.77;4.93;;;;;;;7.53;61.87;99265.59;5110824;28;42074;-73
2021/04/18 01:23:54;;;;;;;5.67;4.23;;;;;;;7.65;61.54;99284.41;5111196;28;42056;-74
2021/04/18 01:26:29;;;;;;;4.10;3.70;;;;;;;7.64;61.74;99282.69;5093375;28;42574;-73
2021/04/18 01:28:59;;;;;;;4.20;3.77;;;;;;;7.56;61.48;99265.44;5108858;28;39828;-73
2021/04/18 01:31:26;;;;;;;5.03;4.30;;;;;;;7.62;61.93;99274.84;5111536;27;41330;-75
2021/04/18 01:33:55;;;;;;;6.57;4.63;;;;;;;7.61;62.39;99273.16;5110631;28;42519;-74
2021/04/18 01:36:23;;;;;;;5.70;4.67;;;;;;;7.57;62.06;99269.78;5109652;28;41179;-74
2021/04/18 01:38:50;;;;;;;4.83;4.43;;;;;;;7.60;62.24;99274.06;5110030;28;40479;-75
2021/04/18 01:41:18;;;;;;;6.10;4.97;;;;;;;7.63;62.15;99281.00;5109460;27;41502;-74
2021/04/18 01:43:45;;;;;;;5.00;4.50;;;;;;;7.64;61.83;99269.53;5109993;28;42555;-74
2021/04/18 01:46:12;;;;;;;6.13;4.63;;;;;;;7.64;61.86;99278.28;5110728;27;42851;-74
2021/04/18 01:48:39;;;;;;;5.80;4.10;;;;;;;7.62;61.68;99274.00;5109510;28;39964;-74
2021/04/18 01:51:09;;;;;;;4.40;4.00;;;;;;;7.64;61.83;99265.09;5108859;28;41554;-73
2021/04/18 01:53:38;;;;;;;5.60;4.73;;;;;;;7.64;61.73;99269.53;5126725;27;42927;-74
2021/04/18 01:56:06;;;;;;;4.70;3.63;;;;;;;7.64;61.86;99274.78;5093018;28;42246;-73
2021/04/18 01:58:37;;;;;;;5.73;4.60;;;;;;;7.64;61.94;99274.78;5109371;28;39566;-74
2021/04/18 02:01:25;;;;;;;6.23;4.73;;;;;;;7.64;61.72;99278.28;5090848;28;42224;-74
2021/04/18 02:03:53;;;;;;;6.30;4.57;;;;;;;7.63;61.56;99262.53;5084963;28;42745;-74
2021/04/18 02:06:20;;;;;;;6.23;5.00;;;;;;;7.62;61.55;99269.59;5090913;28;42339;-74
2021/04/18 02:09:02;;;;;;;5.23;4.27;;;;;;;7.64;61.89;99269.53;5100658;28;42047;-74
2021/04/18 02:11:36;;;;;;;4.60;3.83;;;;;;;7.63;61.92;99259.91;5111154;27;41432;-75
2021/04/18 02:14:06;;;;;;;6.23;5.13;;;;;;;7.64;61.74;99272.16;5092305;28;42956;-74
2021/04/18 02:17:00;;;;;;;6.37;4.37;;;;;;;7.63;61.82;99268.66;5080225;28;42006;-74
2021/04/18 02:19:27;;;;;;;6.33;5.43;;;;;;;7.59;61.87;99248.63;5072375;28;39058;-74
2021/04/18 02:21:55;;;;;;;7.17;6.03;;;;;;;7.61;62.04;99243.28;5088811;28;42103;-74
2021/04/18 02:24:24;;;;;;;9.57;6.30;;;;;;;7.57;62.71;99247.84;5101972;28;43250;-74
2021/04/18 02:26:51;;;;;;;5.40;4.90;;;;;;;7.57;62.38;99253.97;5109061;28;42085;-75
2021/04/18 02:29:32;;;;;;;5.13;4.67;;;;;;;7.58;62.29;99257.44;5109421;28;39307;-74
2021/04/18 02:32:04;;;;;;;6.30;5.00;;;;;;;7.58;62.15;99253.03;5109259;28;40762;-74
2021/04/18 02:34:37;;;;;;;6.73;5.23;;;;;;;7.60;62.36;99260.03;5091884;28;42760;-74
2021/04/18 02:37:05;;;;;;;8.37;5.13;;;;;;;7.60;62.06;99260.03;5092381;28;41820;-74
2021/04/18 02:39:33;;;;;;;4.63;4.20;;;;;;;7.60;62.27;99255.63;5108207;28;40737;-74
2021/04/18 02:42:02;;;;;;;5.70;4.27;;;;;;;7.61;61.78;99257.31;5108111;28;43304;-74
2021/04/18 02:44:29;;;;;;;6.37;3.90;;;;;;;7.60;61.81;99255.63;5108871;28;43509;-74
2021/04/18 02:46:57;;;;;;;5.30;4.63;;;;;;;7.63;61.77;99260.75;5109373;27;42111;-74
2021/04/18 02:49:25;;;;;;;4.17;3.63;;;;;;;7.63;61.60;99249.34;5108647;28;40717;-74
2021/04/18 02:51:54;;;;;;;5.57;4.50;;;;;;;7.63;61.53;99250.22;5108558;28;41530;-74
2021/04/18 02:54:22;;;;;;;5.90;4.40;;;;;;;7.63;61.39;99250.22;5108461;28;43546;-74
2021/04/18 02:56:55;;;;;;;4.40;4.00;;;;;;;7.63;61.30;99254.63;5108645;28;42213;-74
2021/04/18 02:59:22;;;;;;;4.70;3.77;;;;;;;7.64;61.12;99246.66;5110081;27;39841;-74
2021/04/18 03:01:50;;;;;;;5.37;4.00;;;;;;;7.65;61.29;99252.78;5109831;27;42329;-74
2021/04/18 03:04:17;;;;;;;4.40;3.37;;;;;;;7.64;61.13;99254.56;5108059;28;42700;-74
2021/04/18 03:06:45;;;;;;;4.90;4.10;;;;;;;7.66;61.16;99259.78;5108081;27;42987;-75
2021/04/18 03:09:13;;;;;;;5.43;4.13;;;;;;;7.66;61.02;99259.78;5108935;28;41827;-74
2021/04/18 03:11:44;;;;;;;6.17;4.70;;;;;;;7.66;61.62;99262.41;5092636;28;40621;-74
2021/04/18 03:14:23;;;;;;;4.80;4.40;;;;;;;7.64;61.75;99246.66;5108347;28;42757;-74
2021/04/18 03:16:51;;;;;;;5.23;4.00;;;;;;;7.65;61.62;99253.66;5091619;28;41228;-74
2021/04/18 03:19:19;;;;;;;4.17;3.77;;;;;;;7.65;61.23;99247.50;5092233;28;39752;-74
2021/04/18 03:21:51;;;;;;;4.27;3.87;;;;;;;7.62;61.40;99252.91;5107951;28;40516;-74
2021/04/18 03:24:18;;;;;;;4.73;4.10;;;;;;;7.65;61.58;99258.91;5109776;27;41965;-74
2021/04/18 03:26:46;;;;;;;8.23;5.20;;;;;;;7.63;61.85;99246.72;5108357;28;41876;-74
2021/04/18 03:29:13;;;;;;;6.20;5.00;;;;;;;7.58;61.94;99246.91;5109487;27;40060;-74
2021/04/18 03:31:42;;;;;;;5.83;5.23;;;;;;;7.62;62.06;99250.28;5108732;28;41432;-72
2021/04/18 03:34:10;;;;;;;5.00;4.50;;;;;;;7.62;61.93;99252.91;5109693;27;42685;-75
2021/04/18 03:36:39;;;;;;;8.80;6.07;;;;;;;7.62;61.55;99256.41;5108390;28;42609;-73
2021/04/18 03:39:14;;;;;;;6.10;4.90;;;;;;;7.57;61.67;99258.38;5107965;28;39529;-73
2021/04/18 03:41:43;;;;;;;5.97;4.40;;;;;;;7.55;61.89;99241.78;5108918;28;41598;-73
2021/04/18 03:44:11;;;;;;;6.17;4.63;;;;;;;7.63;61.98;99249.34;5109360;27;43842;-74
2021/04/18 03:46:38;;;;;;;6.00;4.30;;;;;;;7.63;61.87;99262.53;5108025;28;42760;-73
2021/04/18 03:49:06;;;;;;;5.70;4.70;;;;;;;7.62;61.77;99255.56;5107317;28;39689;-73
2021/04/18 03:51:34;;;;;;;4.83;4.30;;;;;;;7.55;61.76;99245.25;5108069;28;41697;-74
2021/04/18 03:54:08;;;;;;;4.90;4.37;;;;;;;7.63;61.54;99252.84;5090864;28;41454;-74
2021/04/18 03:56:36;;;;;;;6.23;4.60;;;;;;;7.63;61.74;99249.34;5142090;27;41756;-74
2021/04/18 03:59:04;;;;;;;6.07;4.77;;;;;;;7.63;61.72;99249.34;5107106;28;38355;-74
2021/04/18 04:01:32;;;;;;;5.73;4.73;;;;;;;7.63;61.72;99246.72;5107801;28;41465;-73
2021/04/18 04:04:04;;;;;;;6.57;5.17;;;;;;;7.60;61.71;99233.66;5107937;28;41812;-74
2021/04/18 04:06:36;;;;;;;6.40;4.97;;;;;;;7.62;61.41;99237.09;5107630;28;42121;-73
2021/04/18 04:09:05;;;;;;;6.80;5.37;;;;;;;7.60;61.84;99228.41;5108294;27;40646;-74
2021/04/18 04:11:39;;;;;;;5.27;4.30;;;;;;;7.60;61.92;99238.94;5109635;27;41602;-74
2021/04/18 04:14:09;;;;;;;5.13;4.33;;;;;;;7.58;61.91;99242.50;5123530;27;45103;-74
2021/04/18 04:16:43;;;;;;;4.97;4.10;;;;;;;7.58;61.91;99253.03;5129870;27;43000;-74
2021/04/18 04:19:14;;;;;;;6.63;5.30;;;;;;;7.57;61.85;99251.31;5102088;28;38541;-74
2021/04/18 04:22:01;;;;;;;6.00;4.50;;;;;;;7.58;61.73;99241.63;5091847;28;41537;-74
2021/04/18 04:24:48;;;;;;;5.93;4.50;;;;;;;7.57;61.77;99246.06;5090678;28;42819;-74
2021/04/18 04:27:15;;;;;;;4.60;4.20;;;;;;;7.51;61.68;99225.25;5110985;28;41963;-74
2021/04/18 04:29:43;;;;;;;5.77;4.23;;;;;;;7.60;61.81;99246.84;5110728;28;39824;-74
2021/04/18 04:32:10;;;;;;;5.43;4.40;;;;;;;7.62;61.51;99242.38;5110857;28;41687;-74
2021/04/18 04:34:37;;;;;;;4.27;3.87;;;;;;;7.63;61.85;99244.09;5110544;28;42726;-75
2021/04/18 04:37:05;;;;;;;5.17;4.30;;;;;;;7.53;61.77;99231.31;5110682;28;42270;-74
2021/04/18 04:39:32;;;;;;;7.00;4.70;;;;;;;7.63;61.69;99238.81;5111608;27;39783;-74
2021/04/18 04:42:00;;;;;;;7.00;4.73;;;;;;;7.66;62.09;99246.59;5129392;27;42458;-74
2021/04/18 04:44:29;;;;;;;4.50;3.97;;;;;;;7.67;61.87;99245.63;5090791;28;43182;-74
2021/04/18 04:46:56;;;;;;;6.00;4.43;;;;;;;7.69;62.05;99243.78;5091772;28;42190;-74
2021/04/18 04:49:23;;;;;;;5.57;4.60;;;;;;;7.70;61.95;99243.72;5096069;28;39636;-73
2021/04/18 04:51:51;;;;;;;6.17;3.93;;;;;;;7.73;62.21;99242.75;5112145;27;41333;-74
2021/04/18 04:54:19;;;;;;;6.20;4.60;;;;;;;7.75;61.99;99243.53;5112122;27;42775;-74
2021/04/18 04:56:47;;;;;;;5.40;4.40;;;;;;;7.78;62.00;99244.25;5111944;27;43006;-74
2021/04/18 04:59:15;;;;;;;6.33;5.13;;;;;;;7.81;62.00;99244.09;5111561;27;39965;-74
2021/04/18 05:01:42;;;;;;;5.03;4.03;;;;;;;7.82;61.66;99239.69;5110469;28;41408;-74
2021/04/18 05:04:09;;;;;;;5.23;4.17;;;;;;;7.87;61.71;99243.84;5111846;27;43493;-73
2021/04/18 05:06:36;;;;;;;6.37;5.10;;;;;;;7.91;61.59;99244.56;5111920;27;42042;-74
2021/04/18 05:09:04;;;;;;;4.40;4.00;;;;;;;7.89;61.60;99246.41;5093663;28;38591;-74
2021/04/18 05:11:32;;;;;;;5.60;4.63;;;;;;;7.93;61.84;99242.69;5094214;28;40963;-74
2021/04/18 05:13:59;;;;;;;6.63;5.10;;;;;;;7.99;61.56;99252.97;5110536;28;42630;-74
2021/04/18 05:16:26;;;;;;;5.70;4.47;;;;;;;7.99;61.80;99247.69;5112119;27;42375;-74
2021/04/18 05:18:53;;;;;;;5.87;4.47;;;;;;;7.98;62.26;99240.72;5110475;28;40626;-74
2021/04/18 05:21:20;;;;;;;4.80;4.30;;;;;;;8.03;62.13;99251.91;5111733;27;41496;-73
2021/04/18 05:23:47;;;;;;;6.70;4.17;;;;;;;8.06;61.79;99254.41;5111703;27;42539;-75
2021/04/18 05:26:15;;;;;;;4.47;4.07;;;;;;;8.06;61.70;99259.66;5110246;28;41233;-74
2021/04/18 05:28:42;;;;;;;6.33;5.00;;;;;;;8.10;61.78;99255.97;5110049;27;39930;-73
2021/04/18 05:31:10;;;;;;;7.50;5.23;;;;;;;8.12;61.85;99259.41;5109909;28;41665;-73
2021/04/18 05:33:37;;;;;;;5.43;4.43;;;;;;;8.06;61.70;99243.84;5110243;28;42604;-73
2021/04/18 05:36:05;;;;;;;5.30;4.67;;;;;;;8.15;61.64;99259.28;5109704;28;42123;-73
2021/04/18 05:38:32;;;;;;;6.13;4.70;;;;;;;8.13;61.78;99263.75;5110041;28;39276;-73
2021/04/18 05:40:59;;;;;;;5.60;4.63;;;;;;;8.13;61.88;99255.84;5111650;27;41721;-74
2021/04/18 05:43:26;;;;;;;6.73;4.97;;;;;;;8.13;61.74;99261.13;5109295;28;42890;-74
2021/04/18 05:45:54;;;;;;;5.90;5.10;;;;;;;8.12;62.04;99264.69;5111237;27;42671;-73
2021/04/18 05:48:21;;;;;;;5.03;4.53;;;;;;;8.12;62.05;99263.81;5093229;28;39749;-73
2021/04/18 05:50:48;;;;;;;5.23;4.20;;;;;;;8.09;62.14;99269.22;5111133;27;42294;-76
2021/04/18 05:53:16;;;;;;;5.63;4.33;;;;;;;8.09;62.24;99262.19;5110342;28;42208;-73
2021/04/18 05:55:43;;;;;;;7.57;5.03;;;;;;;8.10;62.25;99265.66;5111131;27;42236;-73
2021/04/18 05:58:11;;;;;;;7.50;5.00;;;;;;;8.12;62.27;99263.81;5089466;28;39104;-73
2021/04/18 06:00:39;;;;;;;6.57;5.07;;;;;;;8.15;62.27;99267.19;5088149;28;41399;-73
2021/04/18 06:03:07;;;;;;;8.30;5.13;;;;;;;8.19;62.01;99265.22;5089618;28;41657;-74
2021/04/18 06:05:35;;;;;;;5.20;3.73;;;;;;;8.23;61.87;99267.69;5101146;28;42142;-73
2021/04/18 06:08:02;;;;;;;6.50;4.70;;;;;;;8.29;61.97;99272.66;5105440;28;40622;-74
2021/04/18 06:10:29;;;;;;;7.17;5.33;;;;;;;8.28;61.91;99268.28;5107105;27;41553;-75
2021/04/18 06:12:56;;;;;;;6.33;4.80;;;;;;;8.32;62.11;99273.47;5105011;28;42643;-75
2021/04/18 06:15:23;;;;;;;6.50;5.23;;;;;;;8.29;62.22;99271.78;5105454;28;41727;-74
2021/04/18 06:17:58;;;;;;;6.97;5.60;;;;;;;8.24;62.31;99274.66;5107186;27;40167;-74
2021/04/18 06:20:27;;;;;;;7.60;5.47;;;;;;;8.25;62.47;99271.09;5104747;28;42185;-74
2021/04/18 06:22:54;;;;;;;6.77;4.97;;;;;;;8.28;62.50;99268.28;5105256;28;43406;-74
2021/04/18 06:25:21;;;;;;;6.17;5.13;;;;;;;8.35;62.11;99270.69;5106423;27;42146;-74
2021/04/18 06:27:49;;;;;;;5.70;4.53;;;;;;;8.44;62.25;99272.91;5107068;27;39828;-74
2021/04/18 06:30:17;;;;;;;5.67;4.57;;;;;;;8.44;62.37;99254.41;5104933;27;42131;-74
2021/04/18 06:32:44;;;;;;;7.40;5.40;;;;;;;8.51;62.18;99274.34;5107926;27;43286;-74
2021/04/18 06:35:12;;;;;;;7.50;4.93;;;;;;;8.45;62.17;99253.50;5105936;27;42007;-74
2021/04/18 06:37:40;;;;;;;7.63;6.27;;;;;;;8.58;62.23;99266.03;5083843;28;39842;-74
2021/04/18 06:40:09;;;;;;;7.43;5.83;;;;;;;8.57;62.19;99261.69;5103769;27;42314;-74
2021/04/18 06:42:37;;;;;;;8.97;6.27;;;;;;;8.59;61.84;99269.53;5103703;28;42346;-74
2021/04/18 06:45:07;;;;;;;7.83;6.20;;;;;;;8.67;61.88;99267.38;5103175;28;41721;-74
2021/04/18 06:47:35;;;;;;;8.93;5.73;;;;;;;8.77;61.63;99268.66;5139519;27;39593;-74
2021/04/18 06:50:03;;;;;;;7.30;5.73;;;;;;;8.86;61.39;99273.50;5105159;27;42269;-74
2021/04/18 06:52:47;;;;;;;5.80;5.20;;;;;;;8.91;61.20;99255.63;5104472;27;43298;-74
2021/04/18 06:55:17;;;;;;;10.03;5.13;;;;;;;9.17;61.12;99266.66;5105149;28;42431;-74
2021/04/18 06:57:45;;;;;;;8.73;5.80;;;;;;;9.27;60.37;99271.41;5104808;28;39597;-74
2021/04/18 07:00:14;;;;;;;7.50;4.93;;;;;;;9.42;60.37;99274.22;5104256;27;41662;-74
2021/04/18 07:02:41;;;;;;;6.13;5.17;;;;;;;9.49;59.78;99265.06;5104886;28;42417;-74
2021/04/18 07:05:11;;;;;;;6.77;5.20;;;;;;;9.77;58.95;99285.63;5105910;27;42891;-74
2021/04/18 07:07:40;;;;;;;8.90;6.00;;;;;;;9.94;58.99;99280.28;5105219;28;38873;-74
2021/04/18 07:10:12;;;;;;;6.43;5.00;;;;;;;10.09;59.14;99274.19;5087143;28;40685;-74
2021/04/18 07:12:42;;;;;;;6.30;5.27;;;;;;;10.13;58.87;99267.81;5106467;27;43509;-74
2021/04/18 07:15:10;;;;;;;12.50;5.87;;;;;;;10.26;58.39;99284.72;5104719;27;41930;-73
2021/04/18 07:17:47;;;;;;;6.63;5.60;;;;;;;10.34;58.44;99282.53;5104637;28;39730;-74
2021/04/18 07:20:17;;;;;;;8.63;5.67;;;;;;;10.51;57.96;99291.38;5105670;27;41567;-74
2021/04/18 07:22:44;;;;;;;7.00;5.53;;;;;;;10.62;57.62;99281.03;5105161;27;42564;-74
2021/04/18 07:25:13;;;;;;;6.07;4.90;;;;;;;10.59;56.96;99267.94;5103435;28;42200;-74
2021/04/18 07:27:45;;;;;;;6.20;4.90;;;;;;;10.83;56.28;99293.06;5104714;28;39909;-74
2021/04/18 07:30:13;;;;;;;7.13;5.73;;;;;;;10.95;56.11;99294.16;5103533;27;42078;-74
2021/04/18 07:32:40;;;;;;;5.80;4.80;;;;;;;11.09;55.45;99300.38;5105557;28;41736;-74
2021/04/18 07:35:32;;;;;;;7.60;5.83;;;;;;;11.18;54.38;99304.28;5103401;28;42030;-74
2021/04/18 07:38:14;;;;;;;7.83;5.63;;;;;;;11.22;54.16;99299.66;5100942;28;40452;-74
2021/04/18 07:40:42;;;;;;;8.00;5.60;;;;;;;11.30;54.48;99297.41;5101163;28;41928;-74
2021/04/18 07:43:10;;;;;;;8.60;5.83;;;;;;;11.41;54.43;99298.50;5104637;28;41865;-74
2021/04/18 07:45:38;;;;;;;9.13;5.73;;;;;;;11.51;53.86;99296.16;5102320;28;42205;-74
2021/04/18 07:48:10;;;;;;;9.87;6.60;;;;;;;11.50;53.64;99284.69;5106346;27;40287;-75
2021/04/18 07:50:38;;;;;;;7.07;5.97;;;;;;;11.60;52.56;99295.63;5105174;27;42270;-75
2021/04/18 07:53:06;;;;;;;8.10;5.80;;;;;;;11.76;53.19;99300.88;5103649;27;42312;-74
2021/04/18 07:55:34;;;;;;;9.97;6.80;;;;;;;11.79;51.59;99309.50;5103943;28;41608;-74
2021/04/18 07:58:03;;;;;;;9.37;6.57;;;;;;;11.82;52.10;99305.81;5086721;28;39681;-74
2021/04/18 08:00:30;;;;;;;6.67;5.80;;;;;;;11.85;52.39;99300.34;5102969;28;41521;-74
2021/04/18 08:02:58;;;;;;;10.90;6.77;;;;;;;11.84;52.51;99304.78;5104245;28;20229;-74
2021/04/18 08:05:29;;;;;;;7.93;5.73;;;;;;;11.83;52.22;99300.44;5103282;28;42006;-74
2021/04/18 08:08:01;;;;;;;9.67;6.67;;;;;;;11.82;52.49;99298.72;5105420;27;40267;-73
2021/04/18 08:10:32;;;;;;;8.93;6.40;;;;;;;11.85;52.35;99295.03;5103140;27;42797;-74
2021/04/18 08:13:09;;;;;;;9.97;5.93;;;;;;;12.00;52.77;99293.22;5106879;27;43305;-75
2021/04/18 08:15:38;;;;;;;6.53;5.67;;;;;;;12.07;52.54;99283.94;5105991;28;42495;-74
2021/04/18 08:18:08;;;;;;;9.27;6.50;;;;;;;12.30;52.51;99296.66;5106222;27;40489;-74
2021/04/18 08:20:37;;;;;;;8.23;6.23;;;;;;;12.36;52.41;99301.59;5103199;28;41966;-74
2021/04/18 08:23:08;;;;;;;8.97;6.27;;;;;;;12.39;51.35;99305.84;5106943;27;43899;-74
2021/04/18 08:25:36;;;;;;;9.73;6.93;;;;;;;12.40;50.96;99312.84;5106163;28;41308;-73
2021/04/18 08:28:09;;;;;;;9.20;6.90;;;;;;;12.47;51.16;99301.78;5106185;28;39619;-74
2021/04/18 08:31:06;;;;;;;9.10;7.27;;;;;;;12.63;50.48;99320.22;5105356;28;42637;-73
2021/04/18 08:33:45;;;;;;;11.47;6.40;;;;;;;12.82;50.95;99303.97;5091071;28;42088;-74
2021/04/18 08:36:15;;;;;;;8.50;6.40;;;;;;;12.97;50.43;99313.63;5087784;28;40783;-73
2021/04/18 08:38:43;;;;;;;9.43;6.67;;;;;;;13.21;49.26;99316.50;5107619;28;39786;-73
2021/04/18 08:41:13;;;;;;;12.27;7.93;;;;;;;13.35;49.30;99318.25;5109146;27;41574;-73
2021/04/18 08:43:42;;;;;;;10.50;7.50;;;;;;;13.58;48.88;99310.44;5108135;28;41822;-74
2021/04/18 08:46:09;;;;;;;8.73;7.20;;;;;;;13.94;48.48;99328.38;5109043;27;42842;-74
2021/04/18 08:48:44;;;;;;;9.37;7.07;;;;;;;14.36;47.41;99329.00;5109741;27;39429;-74
2021/04/18 08:51:11;;;;;;;8.53;7.03;;;;;;;14.72;47.09;99331.72;5107288;28;42415;-74
2021/04/18 08:53:53;;;;;;;9.50;7.87;;;;;;;14.96;45.74;99345.09;5108439;28;41830;-74
2021/04/18 08:56:20;;;;;;;12.13;9.20;;;;;;;15.00;45.18;99341.25;5108974;27;43008;-74
2021/04/18 08:58:49;;;;;;;9.10;8.10;;;;;;;15.09;44.63;99342.41;5107014;28;40650;-74
2021/04/18 09:01:17;;;;;;;11.60;8.73;;;;;;;15.10;44.26;99344.09;5108595;27;41311;-74
2021/04/18 09:03:58;;;;;;;10.67;8.83;;;;;;;15.05;44.49;99331.13;5085720;28;42152;-75
2021/04/18 09:06:33;;;;;;;11.37;9.80;;;;;;;15.14;43.83;99348.25;5107316;28;42805;-73
2021/04/18 09:09:02;;;;;;;15.43;10.60;;;;;;;15.13;43.78;99351.03;5097763;28;39669;-73
2021/04/18 09:11:36;;;;;;;10.27;9.13;;;;;;;15.07;44.33;99347.03;5112027;27;42364;-75
2021/04/18 09:14:04;;;;;;;9.73;8.57;;;;;;;15.12;44.47;99339.50;5110608;27;43087;-75
2021/04/18 09:16:33;;;;;;;10.40;8.80;;;;;;;15.23;43.52;99342.25;5111901;27;42304;-73
2021/04/18 09:19:36;;;;;;;11.97;9.60;;;;;;;15.39;43.94;99326.81;5107907;28;39774;-74
2021/04/18 09:22:07;;;;;;;12.53;9.20;;;;;;;15.69;42.97;99341.53;5051703;28;41680;-74
2021/04/18 09:24:40;;;;;;;9.50;8.43;;;;;;;15.78;42.34;99351.50;5068248;28;42735;-73
2021/04/18 09:27:10;;;;;;;10.40;8.80;;;;;;;15.79;42.38;99346.06;5089331;28;42673;-74
2021/04/18 09:29:48;;;;;;;11.10;8.77;;;;;;;15.81;41.68;99348.59;5110346;27;39833;-74
2021/04/18 09:32:18;;;;;;;11.57;9.10;;;;;;;15.70;42.26;99345.91;5109460;28;41692;-74
2021/04/18 09:34:46;;;;;;;11.00;9.20;;;;;;;15.71;42.67;99343.09;5111490;27;42454;-74
2021/04/18 09:37:17;;;;;;;12.47;8.83;;;;;;;15.72;42.42;99330.59;5093297;28;42382;-74
2021/04/18 09:39:49;;;;;;;11.87;8.80;;;;;;;15.63;42.82;99333.97;5108331;28;40791;-74
2021/04/18 09:42:16;;;;;;;13.23;9.50;;;;;;;15.52;43.05;99348.09;5090499;27;41095;-74
2021/04/18 09:44:45;;;;;;;12.43;8.63;;;;;;;15.44;43.66;99346.00;5109772;27;42200;-74
2021/04/18 09:47:25;;;;;;;11.37;9.13;;;;;;;15.52;44.10;99337.41;5110218;27;42824;-74
2021/04/18 09:49:56;;;;;;;13.70;8.87;;;;;;;15.83;42.93;99341.31;5107521;28;40016;-74
2021/04/18 09:52:35;;;;;;;10.70;8.13;;;;;;;16.03;42.26;99327.28;5110058;27;41113;-74
2021/04/18 09:55:15;;;;;;;13.70;10.23;;;;;;;16.32;40.86;99350.91;5090911;28;41668;-75
2021/04/18 09:57:44;;;;;;;11.53;9.23;;;;;;;16.57;40.99;99342.63;5110369;27;42084;-74
2021/04/18 10:00:17;;;;;;;12.53;8.90;;;;;;;16.83;40.88;99333.41;5107000;28;40009;-74
2021/04/18 10:03:03;;;;;;;11.07;9.27;;;;;;;17.20;40.36;99335.75;5058676;28;90546;-75
2021/04/18 10:05:32;;;;;;;12.03;7.97;;;;;;;17.53;40.20;99342.84;5069343;28;43002;-74
2021/04/18 10:08:23;;;;;;;13.33;9.40;;;;;;;17.77;38.59;99356.91;5048730;28;41853;-75
2021/04/18 10:10:53;;;;;;;11.60;9.23;;;;;;;17.81;38.77;99344.94;5049854;28;40674;-75
2021/04/18 10:13:38;;;;;;;8.97;8.07;;;;;;;17.96;38.72;99348.13;5047221;28;42399;-74
2021/04/18 10:16:07;;;;;;;9.43;7.73;;;;;;;18.11;38.73;99349.50;5048393;28;42377;-74
2021/04/18 10:18:36;;;;;;;10.13;8.77;;;;;;;18.36;37.50;99358.13;5055057;28;42310;-75
2021/04/18 10:21:17;;;;;;;10.07;8.83;;;;;;;18.64;37.10;99363.69;5067368;28;40622;-74
2021/04/18 10:23:45;;;;;;;11.50;9.00;;;;;;;18.99;35.97;99360.56;5066579;28;41713;-75
2021/04/18 10:26:14;;;;;;;12.83;9.63;;;;;;;19.42;35.47;99369.25;5052912;28;42742;-75
2021/04/18 10:28:41;;;;;;;12.63;10.13;;;;;;;19.67;35.14;99369.59;5066978;28;42398;-75
2021/04/18 10:31:18;;;;;;;9.87;8.87;;;;;;;20.23;35.27;99360.78;5065692;28;39766;-76
2021/04/18 10:33:45;;;;;;;10.40;9.30;;;;;;;21.22;34.21;99375.50;5067327;28;41871;-75
2021/04/18 10:36:13;;;;;;;11.63;9.33;;;;;;;21.96;32.56;99355.50;5068090;28;42413;-75
2021/04/18 10:38:41;;;;;;;11.50;9.37;;;;;;;22.48;31.97;99370.75;5050785;28;41506;-75
2021/04/18 10:41:08;;;;;;;12.07;10.13;;;;;;;22.81;29.99;99381.78;5050364;28;38761;-75
2021/04/18 10:43:36;;;;;;;15.13;9.73;;;;;;;22.66;31.17;99372.53;5066785;28;42358;-75
2021/04/18 10:46:04;;;;;;;10.33;9.03;;;;;;;22.65;31.32;99360.03;5068732;28;42391;-75
2021/04/18 10:48:32;;;;;;;13.03;10.23;;;;;;;22.72;30.26;99371.91;5050823;28;41361;-75
2021/04/18 10:51:00;;;;;;;12.23;10.60;;;;;;;22.61;30.90;99369.50;5067262;28;39887;-75
2021/04/18 10:53:27;;;;;;;12.50;9.50;;;;;;;22.61;30.60;99361.41;5050816;28;40717;-75
2021/04/18 10:55:54;;;;;;;12.23;10.03;;;;;;;22.36;30.27;99361.25;5067417;28;41880;-75
2021/04/18 10:58:21;;;;;;;12.03;10.13;;;;;;;21.86;30.88;99350.19;5067074;28;42110;-74
2021/04/18 11:00:48;;;;;;;11.63;10.20;;;;;;;21.42;31.31;99366.28;5068742;28;40375;-75
2021/04/18 11:03:16;;;;;;;13.13;11.70;;;;;;;20.90;31.94;99357.03;5063360;28;42007;-75
2021/04/18 11:05:47;;;;;;;12.83;11.50;;;;;;;20.33;32.81;99345.47;5049011;28;43553;-75
2021/04/18 11:08:15;;;;;;;13.80;11.60;;;;;;;19.82;33.62;99335.09;5047995;28;43664;-75
2021/04/18 11:10:43;;;;;;;16.10;11.33;;;;;;;19.53;34.12;99302.88;5049124;28;40035;-75
2021/04/18 11:13:10;;;;;;;13.27;11.87;;;;;;;19.72;34.53;99329.72;5050550;28;41809;-75
2021/04/18 11:15:37;;;;;;;13.43;10.73;;;;;;;19.78;34.65;99317.53;5067434;28;41941;-75
2021/04/18 11:18:04;;;;;;;16.30;11.40;;;;;;;19.75;34.66;99325.06;5068255;28;42258;-75
2021/04/18 11:20:31;;;;;;;11.43;10.00;;;;;;;19.65;35.03;99320.53;5066954;28;39099;-75
2021/04/18 11:22:59;;;;;;;16.77;14.47;;;;;;;19.51;34.99;99318.28;5067401;28;40739;-75
2021/04/18 11:25:26;;;;;;;19.30;16.47;;;;;;;19.39;34.92;99322.06;5068092;28;42434;-75
2021/04/18 11:27:53;;;;;;;12.70;11.40;;;;;;;19.27;35.46;99312.44;5065738;28;42793;-76
2021/04/18 11:30:21;;;;;;;13.07;10.83;;;;;;;19.25;35.59;99320.63;5046403;28;40118;-75
2021/04/18 11:32:48;;;;;;;12.27;9.90;;;;;;;19.20;35.72;99311.28;5049348;28;42203;-75
2021/04/18 11:35:16;;;;;;;10.80;9.63;;;;;;;19.33;35.58;99306.50;5029460;28;42747;-75
2021/04/18 11:37:44;;;;;;;13.97;11.80;;;;;;;19.43;35.67;99280.47;5048762;28;42008;-73
2021/04/18 11:40:17;;;;;;;14.87;10.33;;;;;;;19.91;35.35;99318.09;5047817;28;39783;-73
2021/04/18 11:42:45;;;;;;;10.90;9.83;;;;;;;20.15;34.60;99320.34;5048126;28;41705;-73
2021/04/18 11:45:14;;;;;;;11.93;10.07;;;;;;;20.32;34.42;99310.66;5046011;28;42478;-73
2021/04/18 11:47:42;;;;;;;13.33;10.20;;;;;;;20.43;34.12;99314.03;5047667;28;42992;-73